Decoded Metar for KGFL (GLENS FALLS in NY, USA) (IATA:GFL) | Meteo·Mobile Aviation Weather
aviador You're here:

KGFL Decoded Metar

GLENS FALLS in NY, USA
Report Time2018-12-11 08:53:00
UTC Time2018-12-11 09:49:23
Flight Rules vfr VFR
WindCalm
Visibility9999 m
Phenomena:N/A
Clouds:N/A
Expected CloudBase > 1,200 ft AGL from Temp-Dew spread
CeilingNone
Temp-11°C (ISA -25)
Dew Point-14°C (79% RH)
AAT-14.3°C
QNH1022 hPa
Density Alt-3,114 ft
Elevation338 ft
Report Wrong Elevation
Raw Report
KGFL 110853Z AUTO 00000KT 10SM CLR M11/M14 A3018 RMK AO2 SLP231
I1000 I3000 T11111139 58002=

Extra information for KGFL:More info

Metar Taf Metar & Taf Last 4 Metars F.Rules Stats Wind Profile Meteogram Temp Stats Airport Information Weather charts Add Link Nearby VenuesMetar ALERT Operation Metar Decoded Social comments

AIRNAV info for KGFL